Time;durP1;ratioP1;P1;durP2;ratioP2;P2;SDS_P1;SDS_P2;PMS_P1;PMS_P2;Temp;Humidity;BMP_temperature;BMP_pressure;BME280_temperature;BME280_humidity;BME280_pressure;Samples;Min_cycle;Max_cycle;Signal;HPM_P1;HPM_P2
2022/09/10 00:01:19;;;;;;;1.40;1.00;;;15.90;99.90;;;;;;5008578;28;20177;-36
2022/09/10 00:03:48;;;;;;;3.17;1.17;;;15.90;99.90;;;;;;5029927;28;20372;-36
2022/09/10 00:06:17;;;;;;;1.70;1.00;;;15.90;99.90;;;;;;4994807;28;20218;-35
2022/09/10 00:08:44;;;;;;;2.27;1.00;;;15.90;99.90;;;;;;4999203;28;20182;-35
2022/09/10 00:11:10;;;;;;;2.37;1.00;;;15.90;99.90;;;;;;5013490;28;20178;-36
2022/09/10 00:13:38;;;;;;;2.27;1.00;;;15.90;99.90;;;;;;5021096;28;20183;-37
2022/09/10 00:16:07;;;;;;;1.27;0.80;;;15.80;99.90;;;;;;5026200;28;20202;-37
2022/09/10 00:18:33;;;;;;;1.73;0.87;;;15.80;99.90;;;;;;5014843;28;20191;-35
2022/09/10 00:21:03;;;;;;;2.50;0.90;;;15.90;99.90;;;;;;5018786;28;20249;-34
2022/09/10 00:23:29;;;;;;;2.03;1.30;;;15.90;99.90;;;;;;5010505;28;20222;-35
2022/09/10 00:25:56;;;;;;;2.00;1.10;;;15.80;99.90;;;;;;5027657;28;20568;-35
2022/09/10 00:28:25;;;;;;;2.53;0.80;;;15.80;99.90;;;;;;4997605;28;20184;-35
2022/09/10 00:30:53;;;;;;;2.00;1.10;;;15.80;99.90;;;;;;5001160;28;20232;-35
2022/09/10 00:33:21;;;;;;;1.73;0.90;;;15.80;99.90;;;;;;5022624;28;20230;-35
2022/09/10 00:35:47;;;;;;;2.90;1.17;;;15.80;99.90;;;;;;5002975;28;20552;-34
2022/09/10 00:38:13;;;;;;;1.40;0.90;;;15.90;99.90;;;;;;5022065;28;20186;-35
2022/09/10 00:40:40;;;;;;;1.73;1.00;;;15.90;99.90;;;;;;5007898;28;20190;-36
2022/09/10 00:43:17;;;;;;;1.50;0.93;;;15.90;99.90;;;;;;5013396;28;20209;-35
2022/09/10 00:45:47;;;;;;;5.23;1.10;;;15.80;99.90;;;;;;5022171;28;20202;-36
2022/09/10 00:48:23;;;;;;;2.83;1.20;;;15.70;99.90;;;;;;5020861;28;20189;-35
2022/09/10 00:50:50;;;;;;;3.37;1.27;;;15.60;99.90;;;;;;5021131;28;20187;-36
2022/09/10 00:53:21;;;;;;;3.23;1.13;;;15.50;99.90;;;;;;4994848;28;20215;-34
2022/09/10 00:55:49;;;;;;;2.07;0.93;;;15.40;99.90;;;;;;5021992;28;20214;-35
2022/09/10 00:58:17;;;;;;;2.70;0.90;;;15.40;99.90;;;;;;5029078;28;20178;-35
2022/09/10 01:00:43;;;;;;;1.83;0.90;;;15.40;99.90;;;;;;5016734;28;20206;-33
2022/09/10 01:03:11;;;;;;;4.53;1.10;;;15.40;99.90;;;;;;5003800;28;20237;-34
2022/09/10 01:05:41;;;;;;;1.57;1.10;;;15.40;99.90;;;;;;5024512;28;20222;-35
2022/09/10 01:08:15;;;;;;;3.00;1.20;;;15.40;99.90;;;;;;4997436;28;20176;-35
2022/09/10 01:11:11;;;;;;;2.83;1.17;;;15.50;99.90;;;;;;4998698;28;20697;-35
2022/09/10 01:14:08;;;;;;;2.93;1.00;;;15.40;99.90;;;;;;5013239;28;20221;-35
2022/09/10 01:16:47;;;;;;;1.47;1.30;;;15.40;99.90;;;;;;4996659;28;20218;-35
2022/09/10 01:19:43;;;;;;;3.67;1.17;;;15.40;99.90;;;;;;5027863;28;20274;-35
2022/09/10 01:22:24;;;;;;;2.90;1.10;;;15.30;99.90;;;;;;5029200;28;20190;-35
2022/09/10 01:25:24;;;;;;;2.77;1.33;;;15.30;99.90;;;;;;5023146;28;20206;-35
2022/09/10 01:27:53;;;;;;;2.73;1.23;;;15.40;99.90;;;;;;5013007;28;20286;-35
2022/09/10 01:30:28;;;;;;;2.33;1.00;;;15.40;99.90;;;;;;4996174;28;20203;-35
2022/09/10 01:33:09;;;;;;;3.43;1.20;;;15.30;99.90;;;;;;4994651;28;20233;-35
2022/09/10 01:35:50;;;;;;;5.10;1.10;;;15.20;99.90;;;;;;4996178;28;20194;-35
2022/09/10 01:38:21;;;;;;;2.53;1.10;;;15.20;99.90;;;;;;5009624;28;20191;-35
2022/09/10 01:41:01;;;;;;;3.63;1.07;;;15.20;99.90;;;;;;5012848;28;20225;-35
2022/09/10 01:43:33;;;;;;;3.77;1.20;;;15.10;99.90;;;;;;5012016;28;20210;-35
2022/09/10 01:46:25;;;;;;;2.47;0.97;;;15.10;99.90;;;;;;5027168;28;20209;-34
2022/09/10 01:49:04;;;;;;;1.73;1.00;;;15.20;99.90;;;;;;5012050;28;20187;-35
2022/09/10 01:51:37;;;;;;;2.60;1.10;;;15.20;99.90;;;;;;4991813;28;20176;-36
2022/09/10 01:54:25;;;;;;;1.73;1.00;;;15.30;99.90;;;;;;5002467;28;20199;-35
2022/09/10 01:57:02;;;;;;;2.63;1.10;;;15.30;99.90;;;;;;5016248;28;20237;-35
2022/09/10 01:59:42;;;;;;;1.87;1.10;;;15.40;99.90;;;;;;5015792;28;20182;-35
2022/09/10 02:02:27;;;;;;;1.80;0.90;;;15.40;99.90;;;;;;5015356;28;20190;-36
2022/09/10 02:04:54;;;;;;;2.33;0.80;;;15.40;99.90;;;;;;5007721;28;20217;-37
2022/09/10 02:07:23;;;;;;;3.13;1.20;;;15.50;99.90;;;;;;5012847;28;20187;-37
2022/09/10 02:09:51;;;;;;;2.37;0.90;;;15.60;99.90;;;;;;5007748;28;20178;-36
2022/09/10 02:12:20;;;;;;;2.03;1.00;;;15.60;99.90;;;;;;5016148;28;20175;-36
2022/09/10 02:14:56;;;;;;;2.50;1.10;;;15.60;99.90;;;;;;5028740;28;20179;-36
2022/09/10 02:17:34;;;;;;;1.33;0.87;;;15.60;99.90;;;;;;5026793;28;20183;-35
2022/09/10 02:20:02;;;;;;;2.30;1.10;;;15.60;99.90;;;;;;5013123;28;20186;-41
2022/09/10 02:22:31;;;;;;;1.17;0.80;;;15.60;99.90;;;;;;5013213;28;20187;-36
2022/09/10 02:24:57;;;;;;;2.27;0.90;;;15.50;99.90;;;;;;5014345;28;20215;-36
2022/09/10 02:27:23;;;;;;;1.90;1.00;;;15.60;99.90;;;;;;5032084;28;20258;-36
2022/09/10 02:29:49;;;;;;;1.77;0.90;;;15.60;99.90;;;;;;4998336;28;20191;-36
2022/09/10 02:32:16;;;;;;;2.03;0.93;;;15.60;99.90;;;;;;5000630;28;20659;-36
2022/09/10 02:34:42;;;;;;;1.97;0.90;;;15.60;99.90;;;;;;5016054;28;20187;-36
2022/09/10 02:37:08;;;;;;;1.57;0.80;;;15.50;99.90;;;;;;4996995;28;20214;-36
2022/09/10 02:39:36;;;;;;;3.27;1.17;;;15.60;99.90;;;;;;5030644;28;20189;-37
2022/09/10 02:42:02;;;;;;;1.57;1.03;;;15.50;99.90;;;;;;5005109;28;20180;-37
2022/09/10 02:44:28;;;;;;;2.63;1.00;;;15.60;99.90;;;;;;5013639;28;20199;-36
2022/09/10 02:46:54;;;;;;;1.93;0.93;;;15.60;99.90;;;;;;5028368;28;20201;-36
2022/09/10 02:49:20;;;;;;;1.77;0.80;;;15.60;99.90;;;;;;5027804;28;20175;-36
2022/09/10 02:51:49;;;;;;;1.60;0.90;;;15.50;99.90;;;;;;4999917;28;20203;-37
2022/09/10 02:54:18;;;;;;;2.20;0.80;;;15.50;99.90;;;;;;4997482;28;20261;-36
2022/09/10 02:56:47;;;;;;;3.03;1.10;;;15.50;99.90;;;;;;5012077;28;20235;-36
2022/09/10 02:59:15;;;;;;;1.23;0.80;;;15.50;99.90;;;;;;5012236;28;20175;-36
2022/09/10 03:01:41;;;;;;;2.83;0.80;;;15.50;99.90;;;;;;4995783;28;20184;-36
2022/09/10 03:04:07;;;;;;;1.70;0.90;;;15.50;99.90;;;;;;5012427;28;20213;-36
2022/09/10 03:06:34;;;;;;;1.70;0.80;;;15.40;99.90;;;;;;5017723;28;20222;-36
2022/09/10 03:09:00;;;;;;;1.63;1.00;;;15.40;99.90;;;;;;4997082;28;20247;-36
2022/09/10 03:11:27;;;;;;;2.30;0.83;;;15.40;99.90;;;;;;5031764;28;20201;-36
2022/09/10 03:13:53;;;;;;;2.27;1.00;;;15.40;99.90;;;;;;5026832;28;20176;-36
2022/09/10 03:16:19;;;;;;;1.43;1.10;;;15.40;99.90;;;;;;4995432;28;20208;-36
2022/09/10 03:18:46;;;;;;;2.30;0.90;;;15.40;99.90;;;;;;4996133;28;20195;-37
2022/09/10 03:21:19;;;;;;;1.83;0.90;;;15.40;99.90;;;;;;5033973;28;20183;-36
2022/09/10 03:23:48;;;;;;;1.67;0.90;;;15.40;99.90;;;;;;4997649;28;20203;-36
2022/09/10 03:26:18;;;;;;;1.27;0.83;;;15.40;99.90;;;;;;5014233;28;20206;-36
2022/09/10 03:28:46;;;;;;;2.37;0.93;;;15.30;99.90;;;;;;5006458;28;20217;-36
2022/09/10 03:31:15;;;;;;;3.40;1.00;;;15.30;99.90;;;;;;5012521;28;20179;-37
2022/09/10 03:33:45;;;;;;;1.57;0.90;;;15.30;99.90;;;;;;5005420;28;20174;-36
2022/09/10 03:36:14;;;;;;;1.97;0.87;;;15.30;99.90;;;;;;5014424;28;20207;-36
2022/09/10 03:38:42;;;;;;;2.93;1.00;;;15.30;99.90;;;;;;5000493;28;20222;-37
2022/09/10 03:41:08;;;;;;;1.40;1.00;;;15.40;99.90;;;;;;5012499;28;20179;-36
2022/09/10 03:43:35;;;;;;;3.60;1.00;;;15.40;99.90;;;;;;5007243;28;20208;-36
2022/09/10 03:46:05;;;;;;;2.73;1.10;;;15.40;99.90;;;;;;5011765;28;20194;-36
2022/09/10 03:48:33;;;;;;;1.77;1.00;;;15.40;99.90;;;;;;5002660;28;20247;-36
2022/09/10 03:51:00;;;;;;;1.97;1.10;;;15.40;99.90;;;;;;5005587;28;20236;-37
2022/09/10 03:53:27;;;;;;;1.40;0.80;;;15.40;99.90;;;;;;5014452;28;20233;-36
2022/09/10 03:55:55;;;;;;;2.93;1.00;;;15.40;99.90;;;;;;5020476;28;20203;-34
2022/09/10 03:58:21;;;;;;;1.27;0.77;;;15.40;99.90;;;;;;5003379;28;20175;-34
2022/09/10 04:00:47;;;;;;;1.47;1.00;;;15.40;99.90;;;;;;5001336;28;20270;-34
2022/09/10 04:03:13;;;;;;;1.63;1.13;;;15.40;99.90;;;;;;5011440;28;20266;-34
2022/09/10 04:05:44;;;;;;;1.53;1.00;;;15.40;99.90;;;;;;4995139;28;20301;-34
2022/09/10 04:08:12;;;;;;;2.33;0.90;;;15.40;99.90;;;;;;5003384;28;20225;-34
2022/09/10 04:10:40;;;;;;;1.97;0.90;;;15.40;99.90;;;;;;5007746;28;20175;-34
2022/09/10 04:13:06;;;;;;;1.97;1.30;;;15.40;99.90;;;;;;4994642;28;20178;-34
2022/09/10 04:15:34;;;;;;;1.53;0.93;;;15.50;99.90;;;;;;4994921;28;20219;-34
2022/09/10 04:18:02;;;;;;;2.23;1.10;;;15.50;99.90;;;;;;4995578;28;20267;-36
2022/09/10 04:20:28;;;;;;;1.07;0.80;;;15.50;99.90;;;;;;4997677;28;20168;-34
2022/09/10 04:23:01;;;;;;;1.90;1.20;;;15.40;99.90;;;;;;5011799;28;20215;-34
2022/09/10 04:25:28;;;;;;;1.83;0.83;;;15.40;99.90;;;;;;5009934;28;20213;-34
2022/09/10 04:27:54;;;;;;;2.00;0.80;;;15.40;99.90;;;;;;5012024;28;20175;-34
2022/09/10 04:30:20;;;;;;;2.17;0.90;;;15.40;99.90;;;;;;5027853;28;20206;-34
2022/09/10 04:32:46;;;;;;;2.73;1.10;;;15.30;99.90;;;;;;5012642;28;20635;-33
2022/09/10 04:35:16;;;;;;;1.87;0.90;;;15.30;99.90;;;;;;4995798;28;20798;-34
2022/09/10 04:37:42;;;;;;;2.33;1.07;;;15.30;99.90;;;;;;4993843;28;20206;-36
2022/09/10 04:40:09;;;;;;;2.50;0.90;;;15.30;99.90;;;;;;4995150;28;20194;-35
2022/09/10 04:42:37;;;;;;;0.80;0.80;;;15.20;99.90;;;;;;4998584;28;20186;-35
2022/09/10 04:45:04;;;;;;;1.00;0.90;;;15.20;99.90;;;;;;5013671;28;20202;-34
2022/09/10 04:47:32;;;;;;;3.27;1.10;;;15.10;99.90;;;;;;5008208;28;20182;-34
2022/09/10 04:49:58;;;;;;;1.00;0.90;;;15.10;99.90;;;;;;4998430;28;20239;-34
2022/09/10 04:52:26;;;;;;;1.90;0.90;;;15.10;99.90;;;;;;5010668;28;20180;-34
2022/09/10 04:54:54;;;;;;;1.53;0.77;;;15.10;99.90;;;;;;4979011;28;20188;-34
2022/09/10 04:57:20;;;;;;;1.47;0.90;;;15.10;99.90;;;;;;5009899;28;20190;-34
2022/09/10 04:59:46;;;;;;;1.93;0.90;;;15.10;99.90;;;;;;5013371;28;20178;-34
2022/09/10 05:02:13;;;;;;;1.83;0.70;;;15.10;99.90;;;;;;5020822;28;20236;-34
2022/09/10 05:04:39;;;;;;;2.40;1.17;;;15.10;99.90;;;;;;5013373;28;20206;-35
2022/09/10 05:07:06;;;;;;;2.13;1.07;;;15.10;99.90;;;;;;5011305;28;20214;-34
2022/09/10 05:09:32;;;;;;;4.27;0.97;;;15.10;99.90;;;;;;5004259;28;20265;-34
2022/09/10 05:12:02;;;;;;;1.13;1.00;;;15.10;99.90;;;;;;5012028;28;20202;-34
2022/09/10 05:14:29;;;;;;;1.57;0.97;;;15.10;99.90;;;;;;5043989;22;20263;-36
2022/09/10 05:16:55;;;;;;;2.13;1.03;;;15.10;99.90;;;;;;5012947;28;20226;-36
2022/09/10 05:19:22;;;;;;;3.13;1.03;;;15.10;99.90;;;;;;5008472;28;20182;-36
2022/09/10 05:21:55;;;;;;;1.67;0.90;;;15.00;99.90;;;;;;5019827;28;20675;-36
2022/09/10 05:24:21;;;;;;;2.47;0.90;;;15.00;99.90;;;;;;5032392;28;20230;-36
2022/09/10 05:26:47;;;;;;;3.60;0.97;;;15.00;99.90;;;;;;5007136;28;20196;-34
2022/09/10 05:31:55;;;;;;;3.13;0.97;;;14.90;99.90;;;;;;5070593;22;20229;-43
2022/09/10 05:34:23;;;;;;;1.70;0.90;;;14.90;99.90;;;;;;5004238;28;20260;-42
2022/09/10 05:36:50;;;;;;;2.00;1.20;;;15.00;99.90;;;;;;5022368;28;20274;-42
2022/09/10 05:39:16;;;;;;;1.57;0.87;;;15.00;99.90;;;;;;5001591;28;20281;-42
2022/09/10 05:41:43;;;;;;;2.23;1.23;;;15.00;99.90;;;;;;5020221;28;20181;-42
2022/09/10 05:44:09;;;;;;;2.87;0.87;;;15.00;99.90;;;;;;5003066;28;20198;-42
2022/09/10 05:46:35;;;;;;;2.97;1.07;;;15.00;99.90;;;;;;5006208;28;20190;-42
2022/09/10 05:49:09;;;;;;;2.13;1.00;;;15.00;99.90;;;;;;5022560;28;20286;-42
2022/09/10 05:51:35;;;;;;;2.73;1.17;;;15.00;99.90;;;;;;4995769;28;20702;-42
2022/09/10 05:54:03;;;;;;;1.93;0.90;;;15.10;99.90;;;;;;5002110;28;20194;-42
2022/09/10 05:56:31;;;;;;;2.97;1.07;;;15.10;99.90;;;;;;5005352;28;20180;-42
2022/09/10 05:58:57;;;;;;;1.00;0.90;;;15.10;99.90;;;;;;5003477;28;20294;-43
2022/09/10 06:01:23;;;;;;;3.10;1.17;;;15.10;99.90;;;;;;5005646;28;20186;-43
2022/09/10 06:03:50;;;;;;;1.73;1.00;;;15.00;99.90;;;;;;5005289;28;20313;-43
2022/09/10 06:06:16;;;;;;;1.53;0.80;;;15.10;99.90;;;;;;5006586;28;20238;-43
2022/09/10 06:08:50;;;;;;;2.90;0.90;;;15.10;99.90;;;;;;5005151;28;20199;-43
2022/09/10 06:11:23;;;;;;;4.17;1.00;;;15.10;99.90;;;;;;5006080;28;20179;-43
2022/09/10 06:13:49;;;;;;;1.03;0.90;;;15.10;99.90;;;;;;5012407;28;20210;-43
2022/09/10 06:16:17;;;;;;;1.20;0.83;;;15.10;99.90;;;;;;5001773;28;20345;-43
2022/09/10 06:18:44;;;;;;;1.07;0.90;;;15.10;99.90;;;;;;5006427;28;20210;-43
2022/09/10 06:21:15;;;;;;;2.17;1.00;;;15.10;99.90;;;;;;5009225;28;20266;-40
2022/09/10 06:23:43;;;;;;;1.60;1.10;;;15.20;99.90;;;;;;5028441;28;20328;-42
2022/09/10 06:26:17;;;;;;;1.17;0.90;;;15.20;99.90;;;;;;5012953;28;20171;-43
2022/09/10 06:28:43;;;;;;;1.53;0.83;;;15.20;99.90;;;;;;5012311;28;20194;-42
2022/09/10 06:31:15;;;;;;;1.80;0.87;;;15.30;99.90;;;;;;5012260;28;20244;-42
2022/09/10 06:33:43;;;;;;;1.43;0.90;;;15.30;99.90;;;;;;5012004;28;20185;-41
2022/09/10 06:36:10;;;;;;;1.37;0.80;;;15.40;99.90;;;;;;5012676;28;20643;-41
2022/09/10 06:38:36;;;;;;;1.03;0.90;;;15.40;99.90;;;;;;5011706;28;20248;-43
2022/09/10 06:41:06;;;;;;;1.83;1.00;;;15.40;99.90;;;;;;4997120;28;20734;-40
2022/09/10 06:43:40;;;;;;;1.53;0.90;;;15.40;99.90;;;;;;5031601;28;20252;-42
2022/09/10 06:46:17;;;;;;;2.70;0.80;;;15.50;99.90;;;;;;5009784;28;20252;-41
2022/09/10 06:48:47;;;;;;;3.07;0.83;;;15.50;99.90;;;;;;4997526;28;20206;-45
2022/09/10 06:51:15;;;;;;;0.93;0.70;;;15.60;99.90;;;;;;5001882;28;20194;-40
2022/09/10 06:53:45;;;;;;;1.73;0.70;;;15.60;99.90;;;;;;5023941;28;20240;-44
2022/09/10 06:56:13;;;;;;;3.07;0.90;;;15.60;99.90;;;;;;5015993;28;20205;-43
2022/09/10 06:58:40;;;;;;;1.20;1.10;;;15.60;99.90;;;;;;5015451;28;20197;-42
2022/09/10 07:01:09;;;;;;;2.63;0.90;;;15.60;99.90;;;;;;5015620;28;20174;-41
2022/09/10 07:03:35;;;;;;;1.93;0.90;;;15.60;99.90;;;;;;4995379;28;20199;-43
2022/09/10 07:06:07;;;;;;;2.97;1.03;;;15.50;99.90;;;;;;5012223;28;20179;-41
2022/09/10 07:08:33;;;;;;;1.00;0.80;;;15.60;99.90;;;;;;5018421;28;20174;-42
2022/09/10 07:11:02;;;;;;;2.90;0.90;;;15.60;99.90;;;;;;5015540;28;20187;-41
2022/09/10 07:13:31;;;;;;;2.10;0.80;;;15.60;99.90;;;;;;4998933;28;20171;-42
2022/09/10 07:15:57;;;;;;;1.23;0.80;;;15.60;99.90;;;;;;5015466;28;20182;-42
2022/09/10 07:18:24;;;;;;;2.57;0.90;;;15.70;99.90;;;;;;5014899;28;20228;-42
2022/09/10 07:20:51;;;;;;;2.20;1.00;;;15.80;99.90;;;;;;5015436;28;20178;-43
2022/09/10 07:23:20;;;;;;;0.83;0.80;;;15.80;99.90;;;;;;5031432;28;20206;-41
2022/09/10 07:25:48;;;;;;;1.37;0.93;;;15.80;99.90;;;;;;5002973;28;20195;-42
2022/09/10 07:28:35;;;;;;;1.47;0.73;;;15.90;99.90;;;;;;4996092;28;20182;-40
2022/09/10 07:31:10;;;;;;;2.53;0.90;;;15.80;99.90;;;;;;4998179;28;20215;-43
2022/09/10 07:33:36;;;;;;;1.27;0.80;;;15.80;99.90;;;;;;5000046;28;20181;-42
2022/09/10 07:36:02;;;;;;;2.30;0.80;;;15.80;99.90;;;;;;5016269;28;20187;-41
2022/09/10 07:38:29;;;;;;;0.70;0.70;;;15.80;99.90;;;;;;5015872;28;20186;-41
2022/09/10 07:40:58;;;;;;;1.40;0.60;;;15.80;99.90;;;;;;4995544;28;20289;-43
2022/09/10 07:43:24;;;;;;;3.07;0.90;;;15.70;99.90;;;;;;5009899;28;20187;-43
2022/09/10 07:45:53;;;;;;;1.27;0.80;;;15.80;99.90;;;;;;4995198;28;20179;-42
2022/09/10 07:48:19;;;;;;;0.80;0.60;;;15.80;99.90;;;;;;4998247;28;20187;-42
2022/09/10 07:50:47;;;;;;;3.53;0.93;;;15.80;99.90;;;;;;5032302;28;20174;-41
2022/09/10 07:53:17;;;;;;;3.17;0.70;;;15.90;99.90;;;;;;5014688;28;20202;-43
2022/09/10 07:55:45;;;;;;;3.70;0.83;;;16.00;99.90;;;;;;5030673;28;20179;-43
2022/09/10 07:58:11;;;;;;;0.80;0.57;;;16.20;99.90;;;;;;5014312;28;20185;-42
2022/09/10 08:00:42;;;;;;;0.57;0.57;;;16.40;99.90;;;;;;5031177;28;20171;-42
2022/09/10 08:03:10;;;;;;;0.77;0.60;;;16.60;99.90;;;;;;5014640;28;20232;-42
2022/09/10 08:05:38;;;;;;;1.47;0.50;;;16.80;99.90;;;;;;5014319;28;20217;-42
2022/09/10 08:08:05;;;;;;;0.97;0.60;;;16.90;99.90;;;;;;5030649;28;20178;-42
2022/09/10 08:10:31;;;;;;;0.73;0.63;;;16.90;99.90;;;;;;5014411;28;20201;-39
2022/09/10 08:12:58;;;;;;;1.50;0.60;;;16.90;99.90;;;;;;5014238;28;20179;-42
2022/09/10 08:15:24;;;;;;;1.17;0.67;;;17.00;99.90;;;;;;5014314;28;20180;-43
2022/09/10 08:17:51;;;;;;;1.80;0.60;;;17.00;99.90;;;;;;5030851;28;20197;-43
2022/09/10 08:20:19;;;;;;;2.30;0.70;;;17.10;99.90;;;;;;5013923;28;20210;-42
2022/09/10 08:22:48;;;;;;;1.20;0.60;;;17.10;99.90;;;;;;5014031;28;20244;-43
2022/09/10 08:25:14;;;;;;;1.43;0.80;;;17.10;99.90;;;;;;5014054;28;20260;-42
2022/09/10 08:27:41;;;;;;;1.40;0.70;;;17.20;99.90;;;;;;5030388;28;20197;-42
2022/09/10 08:30:08;;;;;;;1.10;0.70;;;17.20;99.90;;;;;;4997754;28;20213;-42
2022/09/10 08:32:35;;;;;;;1.67;0.80;;;17.20;99.90;;;;;;5030580;28;20181;-43
2022/09/10 08:35:03;;;;;;;0.98;0.57;;;17.30;99.90;;;;;;5029926;28;20254;-41
2022/09/10 08:37:31;;;;;;;3.10;0.75;;;17.20;99.90;;;;;;5013896;28;20655;-42
2022/09/10 08:39:57;;;;;;;3.72;0.85;;;17.30;99.90;;;;;;5030313;28;20199;-43
2022/09/10 08:42:34;;;;;;;1.23;0.70;;;17.30;99.90;;;;;;5013962;28;20182;-43
2022/09/10 08:45:08;;;;;;;3.07;0.90;;;17.30;99.90;;;;;;5030273;28;20226;-42
2022/09/10 08:47:48;;;;;;;1.67;0.63;;;17.30;99.90;;;;;;5029827;28;20670;-44
2022/09/10 08:50:27;;;;;;;2.03;0.90;;;17.30;99.90;;;;;;5030403;28;20411;-42
2022/09/10 08:53:08;;;;;;;2.50;0.68;;;17.30;99.90;;;;;;5030314;28;20670;-42
2022/09/10 08:55:39;;;;;;;1.75;0.73;;;17.30;99.90;;;;;;5013838;28;20174;-42
2022/09/10 08:58:10;;;;;;;2.80;0.88;;;17.40;99.90;;;;;;5013500;28;20193;-43
2022/09/10 09:00:39;;;;;;;1.88;0.80;;;17.40;99.90;;;;;;5029873;28;20199;-42
2022/09/10 09:03:21;;;;;;;2.85;0.95;;;17.40;99.90;;;;;;5029341;28;20186;-43
2022/09/10 09:05:59;;;;;;;2.00;0.80;;;17.20;99.90;;;;;;5013544;28;20276;-41
2022/09/10 09:08:35;;;;;;;1.83;0.73;;;17.20;99.90;;;;;;5029700;28;20231;-42
2022/09/10 09:11:40;;;;;;;3.13;1.00;;;17.30;99.90;;;;;;5013310;28;20581;-42
2022/09/10 09:14:51;;;;;;;2.07;0.83;;;17.30;99.90;;;;;;5013850;28;20182;-42
2022/09/10 09:17:47;;;;;;;1.40;0.60;;;17.40;99.90;;;;;;5029332;28;20182;-42
2022/09/10 09:20:19;;;;;;;1.52;0.80;;;17.40;99.90;;;;;;5013352;28;20233;-42
2022/09/10 09:23:09;;;;;;;1.87;0.90;;;17.40;99.90;;;;;;5029763;28;20182;-42
2022/09/10 09:26:08;;;;;;;1.40;0.70;;;17.50;99.90;;;;;;4997232;28;20293;-40
2022/09/10 09:28:51;;;;;;;1.55;0.60;;;17.50;99.90;;;;;;5013411;28;20190;-42
2022/09/10 09:31:27;;;;;;;1.85;0.73;;;17.50;99.90;;;;;;4996782;28;20194;-40
2022/09/10 09:34:03;;;;;;;2.67;0.70;;;17.60;99.90;;;;;;4997370;28;20186;-42
2022/09/10 09:36:36;;;;;;;2.47;1.00;;;17.60;99.90;;;;;;5012932;28;20184;-42
2022/09/10 09:39:33;;;;;;;5.60;0.88;;;17.60;99.90;;;;;;4996785;28;20198;-42
2022/09/10 09:42:05;;;;;;;1.63;0.80;;;17.70;99.90;;;;;;5005912;28;20190;-41
2022/09/10 09:44:36;;;;;;;3.05;0.90;;;17.80;99.90;;;;;;5029481;28;20207;-43
2022/09/10 09:47:02;;;;;;;2.47;0.90;;;17.90;99.90;;;;;;4996727;28;20185;-42
2022/09/10 09:49:29;;;;;;;1.55;0.80;;;18.00;99.90;;;;;;5029503;28;20209;-42
2022/09/10 09:51:57;;;;;;;2.85;1.00;;;18.20;99.90;;;;;;5013049;28;20189;-42
2022/09/10 09:54:28;;;;;;;2.08;0.80;;;18.40;99.90;;;;;;5029156;28;20240;-42
2022/09/10 09:56:57;;;;;;;3.42;1.00;;;18.50;99.90;;;;;;4997002;28;20221;-43
2022/09/10 09:59:33;;;;;;;2.20;0.80;;;18.60;99.90;;;;;;5012963;28;20207;-42
2022/09/10 10:02:23;;;;;;;2.95;1.15;;;18.60;99.90;;;;;;5029457;28;20261;-42
2022/09/10 10:05:00;;;;;;;1.65;0.93;;;18.60;99.90;;;;;;5029160;28;20218;-42
2022/09/10 10:07:31;;;;;;;2.17;0.90;;;18.80;99.90;;;;;;5030646;28;20202;-43
2022/09/10 10:10:03;;;;;;;2.92;0.80;;;18.80;99.90;;;;;;4996450;28;20297;-42
2022/09/10 10:12:32;;;;;;;2.45;0.82;;;19.00;99.90;;;;;;5029364;28;20258;-42
2022/09/10 10:15:01;;;;;;;2.30;0.88;;;18.80;99.90;;;;;;5000512;28;20241;-42
2022/09/10 10:17:32;;;;;;;1.75;0.75;;;18.80;99.90;;;;;;5016608;28;20237;-42
2022/09/10 10:20:14;;;;;;;2.75;0.77;;;18.70;99.90;;;;;;5000417;28;20208;-40
2022/09/10 10:22:42;;;;;;;2.15;0.98;;;18.70;99.90;;;;;;5000186;28;20182;-42
2022/09/10 10:25:47;;;;;;;3.10;0.90;;;18.80;99.90;;;;;;5032831;28;20202;-43
2022/09/10 10:28:23;;;;;;;1.67;0.85;;;18.60;99.90;;;;;;4953446;29;20209;-42
2022/09/10 10:30:54;;;;;;;1.58;0.70;;;18.60;99.90;;;;;;5024113;28;20198;-42
2022/09/10 10:33:26;;;;;;;1.58;1.00;;;18.50;99.90;;;;;;5000032;28;20178;-44
2022/09/10 10:36:25;;;;;;;2.65;0.80;;;18.50;99.90;;;;;;5032667;28;20186;-40
2022/09/10 10:39:06;;;;;;;2.55;0.90;;;18.30;99.90;;;;;;5016115;28;20239;-40
2022/09/10 10:41:52;;;;;;;3.28;0.75;;;18.00;99.90;;;;;;5016272;28;20183;-42
2022/09/10 10:44:18;;;;;;;2.80;0.80;;;18.00;99.90;;;;;;5015595;28;20206;-42
2022/09/10 10:46:57;;;;;;;1.45;0.73;;;18.00;99.90;;;;;;5032297;28;20178;-43
2022/09/10 10:50:11;;;;;;;1.38;0.77;;;18.00;99.90;;;;;;5012723;28;20222;-42
2022/09/10 10:52:37;;;;;;;2.95;0.93;;;17.90;99.90;;;;;;4995756;28;20183;-42
2022/09/10 10:55:12;;;;;;;1.00;0.90;;;17.90;99.90;;;;;;5012788;28;20175;-42
2022/09/10 10:57:59;;;;;;;1.85;0.75;;;17.90;99.90;;;;;;5012429;28;20707;-42
2022/09/10 11:00:26;;;;;;;1.40;0.80;;;18.00;99.90;;;;;;5012748;28;20199;-43
2022/09/10 11:03:11;;;;;;;1.98;0.88;;;18.10;99.90;;;;;;4996349;28;20187;-42
2022/09/10 11:05:42;;;;;;;2.10;0.80;;;18.20;99.90;;;;;;4996145;28;20234;-42
2022/09/10 11:08:18;;;;;;;1.33;0.70;;;18.40;99.90;;;;;;4995573;28;20183;-42
2022/09/10 11:10:54;;;;;;;1.08;0.70;;;18.60;99.90;;;;;;4996027;28;20189;-42
2022/09/10 11:13:38;;;;;;;2.28;0.90;;;18.80;99.90;;;;;;4995822;28;20179;-43
2022/09/10 11:16:26;;;;;;;1.95;0.90;;;18.90;99.90;;;;;;4995815;28;20189;-42
2022/09/10 11:19:16;;;;;;;2.97;0.82;;;18.90;99.90;;;;;;5029925;28;20213;-43
2022/09/10 11:22:00;;;;;;;1.45;0.80;;;18.90;99.90;;;;;;5015259;28;20170;-44
2022/09/10 11:24:40;;;;;;;2.35;0.90;;;18.90;99.90;;;;;;4998137;28;20215;-42
2022/09/10 11:27:15;;;;;;;1.33;0.55;;;18.90;99.90;;;;;;5031577;28;20228;-42
2022/09/10 11:32:11;;;;;;;2.45;0.80;;;18.90;99.90;;;;;;5014471;28;20206;-90
2022/09/10 11:35:06;;;;;;;2.42;0.88;;;18.90;99.90;;;;;;4999851;28;20194;-91
2022/09/10 11:37:46;;;;;;;3.58;1.13;;;18.80;99.90;;;;;;5000130;28;20183;-91
2022/09/10 11:40:38;;;;;;;4.47;1.35;;;18.80;99.90;;;;;;5016075;28;20213;-91
2022/09/10 11:43:26;;;;;;;1.65;0.80;;;19.10;99.90;;;;;;4999999;28;20182;-91
2022/09/10 11:45:58;;;;;;;2.47;0.98;;;19.50;99.90;;;;;;4999708;28;20269;-90
2022/09/10 11:48:39;;;;;;;2.92;1.00;;;19.90;99.90;;;;;;5012463;28;20293;-91
2022/09/10 11:51:29;;;;;;;2.00;0.80;;;20.00;99.90;;;;;;5019351;28;20224;-91
2022/09/10 11:53:56;;;;;;;1.83;0.90;;;20.20;99.90;;;;;;5019389;28;20209;-91
2022/09/10 11:56:41;;;;;;;1.73;0.80;;;20.50;99.90;;;;;;5035822;28;20189;-91
2022/09/10 11:59:37;;;;;;;1.23;0.85;;;20.50;99.90;;;;;;5019809;28;20213;-91
2022/09/10 12:02:17;;;;;;;2.72;0.95;;;20.70;99.90;;;;;;5019040;28;20236;-91
2022/09/10 12:04:43;;;;;;;1.33;0.63;;;20.70;99.90;;;;;;5019244;28;20198;-91
2022/09/10 12:07:35;;;;;;;5.90;1.23;;;20.80;99.90;;;;;;5035431;28;20189;-91
2022/09/10 12:10:04;;;;;;;1.95;0.80;;;20.60;99.90;;;;;;4982376;28;20210;-91
2022/09/10 12:12:36;;;;;;;1.95;0.80;;;20.70;99.90;;;;;;5019213;28;20181;-91
2022/09/10 12:15:08;;;;;;;1.35;0.73;;;20.70;99.90;;;;;;5019409;28;20210;-91
2022/09/10 12:17:40;;;;;;;1.75;0.82;;;20.80;99.90;;;;;;5010064;28;20191;-91
2022/09/10 12:20:14;;;;;;;2.30;0.90;;;20.90;99.90;;;;;;4996305;28;20191;-91
2022/09/10 12:22:41;;;;;;;3.85;1.17;;;20.90;99.90;;;;;;4996154;28;20186;-91
2022/09/10 12:25:32;;;;;;;3.47;1.00;;;20.80;99.90;;;;;;4996269;28;20211;-91
2022/09/10 12:28:00;;;;;;;1.13;0.73;;;21.00;99.90;;;;;;4997448;28;20175;-91
2022/09/10 12:30:35;;;;;;;1.25;0.82;;;21.10;99.90;;;;;;4996480;28;20187;-91
2022/09/10 12:33:06;;;;;;;1.75;0.88;;;21.30;99.90;;;;;;4980132;28;20179;-90
2022/09/10 12:35:33;;;;;;;1.50;0.70;;;21.20;99.90;;;;;;4995915;28;20199;-91
2022/09/10 12:38:41;;;;;;;1.35;0.80;;;21.30;99.90;;;;;;4979196;28;20275;-91
2022/09/10 12:41:20;;;;;;;2.55;0.80;;;21.20;99.90;;;;;;4969334;28;20691;-91
2022/09/10 12:43:46;;;;;;;1.73;0.70;;;21.10;99.90;;;;;;4979315;28;20374;-90
2022/09/10 12:46:12;;;;;;;2.13;0.80;;;21.00;99.90;;;;;;4979243;28;20196;-90
2022/09/10 12:48:46;;;;;;;2.28;0.90;;;20.80;99.90;;;;;;4993581;28;20273;-91
2022/09/10 12:51:35;;;;;;;1.95;0.70;;;20.60;99.90;;;;;;4998100;28;20178;-91
2022/09/10 12:54:10;;;;;;;1.40;0.82;;;20.20;99.90;;;;;;4997998;28;20206;-90
2022/09/10 12:56:49;;;;;;;1.73;0.70;;;20.00;99.90;;;;;;4998777;28;20180;-91
2022/09/10 12:59:57;;;;;;;2.47;0.85;;;19.90;99.90;;;;;;4999067;28;20253;-91
2022/09/10 13:02:36;;;;;;;1.75;0.82;;;19.70;99.90;;;;;;4979952;28;20190;-90
2022/09/10 13:05:20;;;;;;;1.92;0.63;;;19.70;99.90;;;;;;4999409;28;20218;-91
2022/09/10 13:08:01;;;;;;;2.42;0.90;;;19.80;99.90;;;;;;4982951;28;20210;-90
2022/09/10 13:10:27;;;;;;;1.10;0.70;;;19.80;99.90;;;;;;4998021;28;20166;-90
2022/09/10 13:13:03;;;;;;;1.60;0.65;;;19.80;99.90;;;;;;4998215;28;20179;-91
2022/09/10 13:15:34;;;;;;;1.27;0.80;;;19.70;99.90;;;;;;4998293;28;20210;-91
2022/09/10 13:18:00;;;;;;;1.85;0.85;;;19.70;99.90;;;;;;4997959;28;20194;-90
2022/09/10 13:20:28;;;;;;;1.23;0.60;;;19.60;99.90;;;;;;4998158;28;20187;-91